sensor_id;sensor_type;location;lat;lon;timestamp;temperature;humidity
39067;DHT22;24821;51.988;6.020;2023-12-04T00:01:51;1.80;99.90
39067;DHT22;24821;51.988;6.020;2023-12-04T00:04:16;1.80;99.90
39067;DHT22;24821;51.988;6.020;2023-12-04T00:06:42;1.80;99.90
39067;DHT22;24821;51.988;6.020;2023-12-04T00:09:08;1.80;99.90
39067;DHT22;24821;51.988;6.020;2023-12-04T00:11:33;1.80;99.90
39067;DHT22;24821;51.988;6.020;2023-12-04T00:13:59;1.80;99.90
39067;DHT22;24821;51.988;6.020;2023-12-04T00:16:24;1.80;99.90
39067;DHT22;24821;51.988;6.020;2023-12-04T00:18:50;1.80;99.90
39067;DHT22;24821;51.988;6.020;2023-12-04T00:21:15;1.90;99.90
39067;DHT22;24821;51.988;6.020;2023-12-04T00:23:41;1.90;99.90
39067;DHT22;24821;51.988;6.020;2023-12-04T00:26:06;1.80;99.90
39067;DHT22;24821;51.988;6.020;2023-12-04T00:28:32;1.80;99.90
39067;DHT22;24821;51.988;6.020;2023-12-04T00:30:57;1.90;99.90
39067;DHT22;24821;51.988;6.020;2023-12-04T00:33:23;1.80;99.90
39067;DHT22;24821;51.988;6.020;2023-12-04T00:35:48;1.80;99.90
39067;DHT22;24821;51.988;6.020;2023-12-04T00:38:13;1.90;99.90
39067;DHT22;24821;51.988;6.020;2023-12-04T00:40:39;1.80;99.90
39067;DHT22;24821;51.988;6.020;2023-12-04T00:43:05;1.80;99.90
39067;DHT22;24821;51.988;6.020;2023-12-04T00:45:31;1.80;99.90
39067;DHT22;24821;51.988;6.020;2023-12-04T00:47:56;1.80;99.90
39067;DHT22;24821;51.988;6.020;2023-12-04T00:50:21;1.80;99.90
39067;DHT22;24821;51.988;6.020;2023-12-04T00:52:47;1.80;99.90
39067;DHT22;24821;51.988;6.020;2023-12-04T00:55:13;1.80;99.90
39067;DHT22;24821;51.988;6.020;2023-12-04T00:57:39;1.80;99.90
39067;DHT22;24821;51.988;6.020;2023-12-04T01:00:04;1.90;99.90
39067;DHT22;24821;51.988;6.020;2023-12-04T01:02:30;1.90;99.90
39067;DHT22;24821;51.988;6.020;2023-12-04T01:04:55;1.90;99.90
39067;DHT22;24821;51.988;6.020;2023-12-04T01:07:21;1.90;99.90
39067;DHT22;24821;51.988;6.020;2023-12-04T01:09:46;1.90;99.90
39067;DHT22;24821;51.988;6.020;2023-12-04T01:12:12;1.90;99.90
39067;DHT22;24821;51.988;6.020;2023-12-04T01:14:37;1.80;99.90
39067;DHT22;24821;51.988;6.020;2023-12-04T01:17:06;1.80;99.90
39067;DHT22;24821;51.988;6.020;2023-12-04T01:19:31;1.80;99.90
39067;DHT22;24821;51.988;6.020;2023-12-04T01:21:57;1.80;99.90
39067;DHT22;24821;51.988;6.020;2023-12-04T01:24:22;1.80;99.90
39067;DHT22;24821;51.988;6.020;2023-12-04T01:26:48;1.70;99.90
39067;DHT22;24821;51.988;6.020;2023-12-04T01:29:13;1.70;99.90
39067;DHT22;24821;51.988;6.020;2023-12-04T01:31:39;1.70;99.90
39067;DHT22;24821;51.988;6.020;2023-12-04T01:34:04;1.80;99.90
39067;DHT22;24821;51.988;6.020;2023-12-04T01:36:30;1.80;99.90
39067;DHT22;24821;51.988;6.020;2023-12-04T01:38:55;1.80;99.90
39067;DHT22;24821;51.988;6.020;2023-12-04T01:41:21;1.80;99.90
39067;DHT22;24821;51.988;6.020;2023-12-04T01:43:46;1.80;99.90
39067;DHT22;24821;51.988;6.020;2023-12-04T01:46:12;1.90;99.90
39067;DHT22;24821;51.988;6.020;2023-12-04T01:48:38;1.90;99.90
39067;DHT22;24821;51.988;6.020;2023-12-04T01:51:05;1.90;99.90
39067;DHT22;24821;51.988;6.020;2023-12-04T01:53:32;1.90;99.90
39067;DHT22;24821;51.988;6.020;2023-12-04T01:55:57;1.90;99.90
39067;DHT22;24821;51.988;6.020;2023-12-04T01:58:23;1.90;99.90
39067;DHT22;24821;51.988;6.020;2023-12-04T02:00:48;2.00;99.90
39067;DHT22;24821;51.988;6.020;2023-12-04T02:03:14;1.90;99.90
39067;DHT22;24821;51.988;6.020;2023-12-04T02:05:39;2.00;99.90
39067;DHT22;24821;51.988;6.020;2023-12-04T02:08:05;2.00;99.90
39067;DHT22;24821;51.988;6.020;2023-12-04T02:10:30;2.00;99.90
39067;DHT22;24821;51.988;6.020;2023-12-04T02:12:56;2.00;99.90
39067;DHT22;24821;51.988;6.020;2023-12-04T02:15:21;2.00;99.90
39067;DHT22;24821;51.988;6.020;2023-12-04T02:17:47;2.00;99.90
39067;DHT22;24821;51.988;6.020;2023-12-04T02:20:13;2.00;99.90
39067;DHT22;24821;51.988;6.020;2023-12-04T02:22:39;1.90;99.90
39067;DHT22;24821;51.988;6.020;2023-12-04T02:25:04;2.00;99.90
39067;DHT22;24821;51.988;6.020;2023-12-04T02:28:13;1.90;99.90
39067;DHT22;24821;51.988;6.020;2023-12-04T02:30:19;1.90;99.90
39067;DHT22;24821;51.988;6.020;2023-12-04T02:32:46;1.90;99.90
39067;DHT22;24821;51.988;6.020;2023-12-04T02:35:14;1.90;99.90
39067;DHT22;24821;51.988;6.020;2023-12-04T02:37:40;1.90;99.90
39067;DHT22;24821;51.988;6.020;2023-12-04T02:40:06;1.80;99.90
39067;DHT22;24821;51.988;6.020;2023-12-04T02:42:32;1.80;99.90
39067;DHT22;24821;51.988;6.020;2023-12-04T02:44:58;1.80;99.90
39067;DHT22;24821;51.988;6.020;2023-12-04T02:47:23;1.80;99.90
39067;DHT22;24821;51.988;6.020;2023-12-04T02:49:48;1.70;99.90
39067;DHT22;24821;51.988;6.020;2023-12-04T02:52:14;1.70;99.90
39067;DHT22;24821;51.988;6.020;2023-12-04T02:54:39;1.70;99.90
39067;DHT22;24821;51.988;6.020;2023-12-04T02:57:05;1.70;99.90
39067;DHT22;24821;51.988;6.020;2023-12-04T02:59:30;1.70;99.90
39067;DHT22;24821;51.988;6.020;2023-12-04T03:01:56;1.70;99.90
39067;DHT22;24821;51.988;6.020;2023-12-04T03:04:21;1.70;99.90
39067;DHT22;24821;51.988;6.020;2023-12-04T03:06:47;1.70;99.90
39067;DHT22;24821;51.988;6.020;2023-12-04T03:09:12;1.70;99.90
39067;DHT22;24821;51.988;6.020;2023-12-04T03:11:41;1.70;99.90
39067;DHT22;24821;51.988;6.020;2023-12-04T03:14:07;1.70;99.90
39067;DHT22;24821;51.988;6.020;2023-12-04T03:16:32;1.70;99.90
39067;DHT22;24821;51.988;6.020;2023-12-04T03:18:58;1.70;99.90
39067;DHT22;24821;51.988;6.020;2023-12-04T03:21:24;1.70;99.90
39067;DHT22;24821;51.988;6.020;2023-12-04T03:23:49;1.70;99.90
39067;DHT22;24821;51.988;6.020;2023-12-04T03:26:15;1.80;99.90
39067;DHT22;24821;51.988;6.020;2023-12-04T03:28:40;1.80;99.90
39067;DHT22;24821;51.988;6.020;2023-12-04T03:31:06;1.80;99.90
39067;DHT22;24821;51.988;6.020;2023-12-04T03:33:31;1.80;99.90
39067;DHT22;24821;51.988;6.020;2023-12-04T03:35:58;1.80;99.90
39067;DHT22;24821;51.988;6.020;2023-12-04T03:38:24;1.80;99.90
39067;DHT22;24821;51.988;6.020;2023-12-04T03:40:49;1.80;99.90
39067;DHT22;24821;51.988;6.020;2023-12-04T03:43:15;1.80;99.90
39067;DHT22;24821;51.988;6.020;2023-12-04T03:45:40;1.80;99.90
39067;DHT22;24821;51.988;6.020;2023-12-04T03:48:06;1.90;99.90
39067;DHT22;24821;51.988;6.020;2023-12-04T03:50:31;1.80;99.90
39067;DHT22;24821;51.988;6.020;2023-12-04T03:52:57;1.90;99.90
39067;DHT22;24821;51.988;6.020;2023-12-04T03:55:22;1.90;99.90
39067;DHT22;24821;51.988;6.020;2023-12-04T03:57:47;1.90;99.90
39067;DHT22;24821;51.988;6.020;2023-12-04T04:00:13;1.80;99.90
39067;DHT22;24821;51.988;6.020;2023-12-04T04:02:39;1.90;99.90
39067;DHT22;24821;51.988;6.020;2023-12-04T04:05:05;1.80;99.90
39067;DHT22;24821;51.988;6.020;2023-12-04T04:07:30;1.90;99.90
39067;DHT22;24821;51.988;6.020;2023-12-04T04:09:56;1.90;99.90
39067;DHT22;24821;51.988;6.020;2023-12-04T04:12:22;1.80;99.90
39067;DHT22;24821;51.988;6.020;2023-12-04T04:14:47;1.90;99.90
39067;DHT22;24821;51.988;6.020;2023-12-04T04:17:12;1.90;99.90
39067;DHT22;24821;51.988;6.020;2023-12-04T04:19:38;1.90;99.90
39067;DHT22;24821;51.988;6.020;2023-12-04T04:22:03;1.80;99.90
39067;DHT22;24821;51.988;6.020;2023-12-04T04:24:29;1.80;99.90
39067;DHT22;24821;51.988;6.020;2023-12-04T04:26:55;1.80;99.90
39067;DHT22;24821;51.988;6.020;2023-12-04T04:29:20;1.80;99.90
39067;DHT22;24821;51.988;6.020;2023-12-04T04:31:46;1.80;99.90
39067;DHT22;24821;51.988;6.020;2023-12-04T04:34:11;1.80;99.90
39067;DHT22;24821;51.988;6.020;2023-12-04T04:36:37;1.80;99.90
39067;DHT22;24821;51.988;6.020;2023-12-04T04:39:03;1.80;99.90
39067;DHT22;24821;51.988;6.020;2023-12-04T04:41:28;1.80;99.90
39067;DHT22;24821;51.988;6.020;2023-12-04T04:43:54;1.80;99.90
39067;DHT22;24821;51.988;6.020;2023-12-04T04:46:19;1.80;99.90
39067;DHT22;24821;51.988;6.020;2023-12-04T04:48:45;1.80;99.90
39067;DHT22;24821;51.988;6.020;2023-12-04T04:51:11;1.80;99.90
39067;DHT22;24821;51.988;6.020;2023-12-04T04:53:36;1.70;99.90
39067;DHT22;24821;51.988;6.020;2023-12-04T04:56:03;1.80;99.90
39067;DHT22;24821;51.988;6.020;2023-12-04T04:58:28;1.70;99.90
39067;DHT22;24821;51.988;6.020;2023-12-04T05:00:54;1.80;99.90
39067;DHT22;24821;51.988;6.020;2023-12-04T05:03:19;1.80;99.90
39067;DHT22;24821;51.988;6.020;2023-12-04T05:05:45;1.80;99.90
39067;DHT22;24821;51.988;6.020;2023-12-04T05:08:10;1.80;99.90
39067;DHT22;24821;51.988;6.020;2023-12-04T05:10:37;1.80;99.90
39067;DHT22;24821;51.988;6.020;2023-12-04T05:13:02;1.80;99.90
39067;DHT22;24821;51.988;6.020;2023-12-04T05:15:28;1.80;99.90
39067;DHT22;24821;51.988;6.020;2023-12-04T05:17:53;1.80;99.90
39067;DHT22;24821;51.988;6.020;2023-12-04T05:20:19;1.80;99.90
39067;DHT22;24821;51.988;6.020;2023-12-04T05:22:44;1.80;99.90
39067;DHT22;24821;51.988;6.020;2023-12-04T05:25:10;1.80;99.90
39067;DHT22;24821;51.988;6.020;2023-12-04T05:27:35;1.80;99.90
39067;DHT22;24821;51.988;6.020;2023-12-04T05:30:01;1.80;99.90
39067;DHT22;24821;51.988;6.020;2023-12-04T05:32:26;1.80;99.90
39067;DHT22;24821;51.988;6.020;2023-12-04T05:34:51;1.80;99.90
39067;DHT22;24821;51.988;6.020;2023-12-04T05:37:17;1.80;99.90
39067;DHT22;24821;51.988;6.020;2023-12-04T05:39:42;1.80;99.90
39067;DHT22;24821;51.988;6.020;2023-12-04T05:42:08;1.80;99.90
39067;DHT22;24821;51.988;6.020;2023-12-04T05:44:33;1.80;99.90
39067;DHT22;24821;51.988;6.020;2023-12-04T05:46:59;1.80;99.90
39067;DHT22;24821;51.988;6.020;2023-12-04T05:49:25;1.80;99.90
39067;DHT22;24821;51.988;6.020;2023-12-04T05:51:50;1.80;99.90
39067;DHT22;24821;51.988;6.020;2023-12-04T05:54:16;1.80;99.90
39067;DHT22;24821;51.988;6.020;2023-12-04T05:56:42;1.80;99.90
39067;DHT22;24821;51.988;6.020;2023-12-04T05:59:08;1.80;99.90
39067;DHT22;24821;51.988;6.020;2023-12-04T06:01:33;1.80;99.90
39067;DHT22;24821;51.988;6.020;2023-12-04T06:03:59;1.80;99.90
39067;DHT22;24821;51.988;6.020;2023-12-04T06:06:24;1.80;99.90
39067;DHT22;24821;51.988;6.020;2023-12-04T06:08:49;1.80;99.90
39067;DHT22;24821;51.988;6.020;2023-12-04T06:11:15;1.80;99.90
39067;DHT22;24821;51.988;6.020;2023-12-04T06:13:41;1.80;99.90
39067;DHT22;24821;51.988;6.020;2023-12-04T06:16:06;1.80;99.90
39067;DHT22;24821;51.988;6.020;2023-12-04T06:18:32;1.80;99.90
39067;DHT22;24821;51.988;6.020;2023-12-04T06:20:57;1.80;99.90
39067;DHT22;24821;51.988;6.020;2023-12-04T06:23:23;1.80;99.90
39067;DHT22;24821;51.988;6.020;2023-12-04T06:25:48;1.80;99.90
39067;DHT22;24821;51.988;6.020;2023-12-04T06:28:14;1.80;99.90
39067;DHT22;24821;51.988;6.020;2023-12-04T06:30:40;1.90;99.90
39067;DHT22;24821;51.988;6.020;2023-12-04T06:33:06;1.90;99.90
39067;DHT22;24821;51.988;6.020;2023-12-04T06:35:32;1.90;99.90
39067;DHT22;24821;51.988;6.020;2023-12-04T06:37:58;1.90;99.90
39067;DHT22;24821;51.988;6.020;2023-12-04T06:40:26;1.90;99.90
39067;DHT22;24821;51.988;6.020;2023-12-04T06:42:51;1.90;99.90
39067;DHT22;24821;51.988;6.020;2023-12-04T06:45:17;1.90;99.90
39067;DHT22;24821;51.988;6.020;2023-12-04T06:47:43;1.90;99.90
39067;DHT22;24821;51.988;6.020;2023-12-04T06:50:09;1.90;99.90
39067;DHT22;24821;51.988;6.020;2023-12-04T06:52:35;1.90;99.90
39067;DHT22;24821;51.988;6.020;2023-12-04T06:55:00;1.90;99.90
39067;DHT22;24821;51.988;6.020;2023-12-04T06:57:25;1.90;99.90
39067;DHT22;24821;51.988;6.020;2023-12-04T06:59:51;1.90;99.90
39067;DHT22;24821;51.988;6.020;2023-12-04T07:02:16;1.90;99.90
39067;DHT22;24821;51.988;6.020;2023-12-04T07:04:42;2.00;99.90
39067;DHT22;24821;51.988;6.020;2023-12-04T07:07:07;2.00;99.90
39067;DHT22;24821;51.988;6.020;2023-12-04T07:09:33;2.00;99.90
39067;DHT22;24821;51.988;6.020;2023-12-04T07:11:59;2.00;99.90
39067;DHT22;24821;51.988;6.020;2023-12-04T07:14:25;2.00;99.90
39067;DHT22;24821;51.988;6.020;2023-12-04T07:16:50;2.00;99.90
39067;DHT22;24821;51.988;6.020;2023-12-04T07:19:16;2.00;99.90
39067;DHT22;24821;51.988;6.020;2023-12-04T07:21:41;2.10;99.90
39067;DHT22;24821;51.988;6.020;2023-12-04T07:24:07;2.10;99.90
39067;DHT22;24821;51.988;6.020;2023-12-04T07:26:33;2.10;99.90
39067;DHT22;24821;51.988;6.020;2023-12-04T07:28:59;2.10;99.90
39067;DHT22;24821;51.988;6.020;2023-12-04T07:31:24;2.10;99.90
39067;DHT22;24821;51.988;6.020;2023-12-04T07:33:52;2.10;99.90
39067;DHT22;24821;51.988;6.020;2023-12-04T07:36:18;2.10;99.90
39067;DHT22;24821;51.988;6.020;2023-12-04T07:38:43;2.10;99.90
39067;DHT22;24821;51.988;6.020;2023-12-04T07:41:09;2.10;99.90
39067;DHT22;24821;51.988;6.020;2023-12-04T07:43:34;2.10;99.90
39067;DHT22;24821;51.988;6.020;2023-12-04T07:46:00;2.10;99.90
39067;DHT22;24821;51.988;6.020;2023-12-04T07:48:25;2.10;99.90
39067;DHT22;24821;51.988;6.020;2023-12-04T07:50:51;2.00;99.90
39067;DHT22;24821;51.988;6.020;2023-12-04T07:53:16;2.10;99.90
39067;DHT22;24821;51.988;6.020;2023-12-04T07:55:42;2.00;99.90
39067;DHT22;24821;51.988;6.020;2023-12-04T07:58:08;2.00;99.90
39067;DHT22;24821;51.988;6.020;2023-12-04T08:00:34;2.10;99.90
39067;DHT22;24821;51.988;6.020;2023-12-04T08:03:00;2.10;99.90
39067;DHT22;24821;51.988;6.020;2023-12-04T08:05:25;2.10;99.90
39067;DHT22;24821;51.988;6.020;2023-12-04T08:07:52;2.10;99.90
39067;DHT22;24821;51.988;6.020;2023-12-04T08:10:18;2.10;99.90
39067;DHT22;24821;51.988;6.020;2023-12-04T08:12:46;2.20;99.90
39067;DHT22;24821;51.988;6.020;2023-12-04T08:15:12;2.20;99.90
39067;DHT22;24821;51.988;6.020;2023-12-04T08:17:37;2.20;99.90
39067;DHT22;24821;51.988;6.020;2023-12-04T08:20:03;2.20;99.90
39067;DHT22;24821;51.988;6.020;2023-12-04T08:22:29;2.20;99.90
39067;DHT22;24821;51.988;6.020;2023-12-04T08:24:54;2.30;99.90
39067;DHT22;24821;51.988;6.020;2023-12-04T08:27:20;2.30;99.90
39067;DHT22;24821;51.988;6.020;2023-12-04T08:29:45;2.30;99.90
39067;DHT22;24821;51.988;6.020;2023-12-04T08:32:11;2.30;99.90
39067;DHT22;24821;51.988;6.020;2023-12-04T08:34:36;2.40;99.90
39067;DHT22;24821;51.988;6.020;2023-12-04T08:37:04;2.40;99.90
39067;DHT22;24821;51.988;6.020;2023-12-04T08:39:29;2.40;99.90
39067;DHT22;24821;51.988;6.020;2023-12-04T08:41:54;2.40;99.90
39067;DHT22;24821;51.988;6.020;2023-12-04T08:44:20;2.40;99.90
39067;DHT22;24821;51.988;6.020;2023-12-04T08:46:45;2.40;99.90
39067;DHT22;24821;51.988;6.020;2023-12-04T08:49:11;2.50;99.90
39067;DHT22;24821;51.988;6.020;2023-12-04T08:54:50;2.40;99.90
39067;DHT22;24821;51.988;6.020;2023-12-04T08:57:15;2.50;99.90
39067;DHT22;24821;51.988;6.020;2023-12-04T08:59:41;2.50;99.90
39067;DHT22;24821;51.988;6.020;2023-12-04T09:02:06;2.60;99.90
39067;DHT22;24821;51.988;6.020;2023-12-04T09:04:32;2.60;99.90
39067;DHT22;24821;51.988;6.020;2023-12-04T09:07:00;2.60;99.90
39067;DHT22;24821;51.988;6.020;2023-12-04T09:09:26;2.60;99.90
39067;DHT22;24821;51.988;6.020;2023-12-04T09:11:51;2.60;99.90
39067;DHT22;24821;51.988;6.020;2023-12-04T09:14:19;2.60;99.90
39067;DHT22;24821;51.988;6.020;2023-12-04T09:16:51;2.60;99.90
39067;DHT22;24821;51.988;6.020;2023-12-04T09:19:16;2.60;99.90
39067;DHT22;24821;51.988;6.020;2023-12-04T09:24:39;2.70;99.90
39067;DHT22;24821;51.988;6.020;2023-12-04T09:27:05;2.80;99.90
39067;DHT22;24821;51.988;6.020;2023-12-04T09:29:32;2.80;99.90
39067;DHT22;24821;51.988;6.020;2023-12-04T09:31:57;2.80;99.90
39067;DHT22;24821;51.988;6.020;2023-12-04T09:34:23;2.80;99.90
39067;DHT22;24821;51.988;6.020;2023-12-04T09:36:48;2.80;99.90
39067;DHT22;24821;51.988;6.020;2023-12-04T09:39:14;2.80;99.90
39067;DHT22;24821;51.988;6.020;2023-12-04T09:41:39;2.80;99.90
39067;DHT22;24821;51.988;6.020;2023-12-04T09:44:07;2.80;99.90
39067;DHT22;24821;51.988;6.020;2023-12-04T09:46:33;2.90;99.90
39067;DHT22;24821;51.988;6.020;2023-12-04T09:48:59;2.90;99.90
39067;DHT22;24821;51.988;6.020;2023-12-04T09:51:25;2.90;99.90
39067;DHT22;24821;51.988;6.020;2023-12-04T09:53:52;3.00;99.90
39067;DHT22;24821;51.988;6.020;2023-12-04T09:56:17;3.00;99.90
39067;DHT22;24821;51.988;6.020;2023-12-04T09:58:43;3.00;99.90
39067;DHT22;24821;51.988;6.020;2023-12-04T10:01:10;3.10;99.90
39067;DHT22;24821;51.988;6.020;2023-12-04T10:03:36;3.10;99.90
39067;DHT22;24821;51.988;6.020;2023-12-04T10:06:01;3.10;99.90
39067;DHT22;24821;51.988;6.020;2023-12-04T10:08:27;3.20;99.90
39067;DHT22;24821;51.988;6.020;2023-12-04T10:10:53;3.20;99.90
39067;DHT22;24821;51.988;6.020;2023-12-04T10:13:19;3.30;99.90
39067;DHT22;24821;51.988;6.020;2023-12-04T10:15:48;3.30;99.90
39067;DHT22;24821;51.988;6.020;2023-12-04T10:18:24;3.30;99.90
39067;DHT22;24821;51.988;6.020;2023-12-04T10:20:53;3.40;99.90
39067;DHT22;24821;51.988;6.020;2023-12-04T10:23:19;3.40;99.90
39067;DHT22;24821;51.988;6.020;2023-12-04T10:25:45;3.40;99.90
39067;DHT22;24821;51.988;6.020;2023-12-04T10:28:11;3.40;99.90
39067;DHT22;24821;51.988;6.020;2023-12-04T10:30:37;3.40;99.90
39067;DHT22;24821;51.988;6.020;2023-12-04T10:33:03;3.50;99.90
39067;DHT22;24821;51.988;6.020;2023-12-04T10:35:30;3.40;99.90
39067;DHT22;24821;51.988;6.020;2023-12-04T10:37:56;3.40;99.90
39067;DHT22;24821;51.988;6.020;2023-12-04T10:40:22;3.40;99.90
39067;DHT22;24821;51.988;6.020;2023-12-04T10:42:48;3.50;99.90
39067;DHT22;24821;51.988;6.020;2023-12-04T10:45:14;3.50;99.90
39067;DHT22;24821;51.988;6.020;2023-12-04T10:47:39;3.50;99.90
39067;DHT22;24821;51.988;6.020;2023-12-04T10:50:05;3.50;99.90
39067;DHT22;24821;51.988;6.020;2023-12-04T10:52:32;3.50;99.90
39067;DHT22;24821;51.988;6.020;2023-12-04T10:54:58;3.50;99.90
39067;DHT22;24821;51.988;6.020;2023-12-04T10:57:27;3.60;99.90
39067;DHT22;24821;51.988;6.020;2023-12-04T10:59:57;3.60;99.90
39067;DHT22;24821;51.988;6.020;2023-12-04T11:02:25;3.60;99.90
39067;DHT22;24821;51.988;6.020;2023-12-04T11:04:53;3.60;99.90
39067;DHT22;24821;51.988;6.020;2023-12-04T11:07:20;3.60;99.90
39067;DHT22;24821;51.988;6.020;2023-12-04T11:09:46;3.60;99.90
39067;DHT22;24821;51.988;6.020;2023-12-04T11:12:14;3.60;99.90
39067;DHT22;24821;51.988;6.020;2023-12-04T11:14:44;3.60;99.90
39067;DHT22;24821;51.988;6.020;2023-12-04T11:17:12;3.60;99.90
39067;DHT22;24821;51.988;6.020;2023-12-04T11:22:04;3.60;99.90
39067;DHT22;24821;51.988;6.020;2023-12-04T11:24:32;3.70;99.90
39067;DHT22;24821;51.988;6.020;2023-12-04T11:26:58;3.70;99.90
39067;DHT22;24821;51.988;6.020;2023-12-04T11:29:23;3.70;99.90
39067;DHT22;24821;51.988;6.020;2023-12-04T11:32:04;3.70;99.90
39067;DHT22;24821;51.988;6.020;2023-12-04T11:34:40;3.70;99.90
39067;DHT22;24821;51.988;6.020;2023-12-04T11:37:12;3.80;99.90
39067;DHT22;24821;51.988;6.020;2023-12-04T11:39:38;3.70;99.90
39067;DHT22;24821;51.988;6.020;2023-12-04T11:42:06;3.70;99.90
39067;DHT22;24821;51.988;6.020;2023-12-04T11:47:28;3.70;99.90
39067;DHT22;24821;51.988;6.020;2023-12-04T11:49:58;3.70;99.90
39067;DHT22;24821;51.988;6.020;2023-12-04T11:52:33;3.70;99.90
39067;DHT22;24821;51.988;6.020;2023-12-04T11:55:00;3.70;99.90
39067;DHT22;24821;51.988;6.020;2023-12-04T11:57:38;3.70;99.90
39067;DHT22;24821;51.988;6.020;2023-12-04T12:00:18;3.70;99.90
39067;DHT22;24821;51.988;6.020;2023-12-04T12:05:20;3.60;99.90
39067;DHT22;24821;51.988;6.020;2023-12-04T12:07:45;3.70;99.90
39067;DHT22;24821;51.988;6.020;2023-12-04T12:10:11;3.70;99.90
39067;DHT22;24821;51.988;6.020;2023-12-04T12:12:38;3.70;99.90
39067;DHT22;24821;51.988;6.020;2023-12-04T12:15:04;3.70;99.90
39067;DHT22;24821;51.988;6.020;2023-12-04T12:17:30;3.70;99.90
39067;DHT22;24821;51.988;6.020;2023-12-04T12:19:55;3.60;99.90
39067;DHT22;24821;51.988;6.020;2023-12-04T12:22:22;3.60;99.90
39067;DHT22;24821;51.988;6.020;2023-12-04T12:24:48;3.60;99.90
39067;DHT22;24821;51.988;6.020;2023-12-04T12:27:14;3.60;99.90
39067;DHT22;24821;51.988;6.020;2023-12-04T12:29:39;3.60;99.90
39067;DHT22;24821;51.988;6.020;2023-12-04T12:32:05;3.70;99.90
39067;DHT22;24821;51.988;6.020;2023-12-04T12:34:31;3.60;99.90
39067;DHT22;24821;51.988;6.020;2023-12-04T12:37:01;3.60;99.90
39067;DHT22;24821;51.988;6.020;2023-12-04T12:39:26;3.60;99.90
39067;DHT22;24821;51.988;6.020;2023-12-04T12:41:58;3.60;99.90
39067;DHT22;24821;51.988;6.020;2023-12-04T12:44:36;3.60;99.90
39067;DHT22;24821;51.988;6.020;2023-12-04T12:47:02;3.60;99.90
39067;DHT22;24821;51.988;6.020;2023-12-04T12:49:27;3.50;99.90
39067;DHT22;24821;51.988;6.020;2023-12-04T12:54:33;3.60;99.90
39067;DHT22;24821;51.988;6.020;2023-12-04T12:57:02;3.60;99.90
39067;DHT22;24821;51.988;6.020;2023-12-04T13:05:47;3.60;99.90
39067;DHT22;24821;51.988;6.020;2023-12-04T13:08:13;3.60;99.90
39067;DHT22;24821;51.988;6.020;2023-12-04T13:10:41;3.60;99.90
39067;DHT22;24821;51.988;6.020;2023-12-04T13:13:13;3.60;99.90
39067;DHT22;24821;51.988;6.020;2023-12-04T13:15:39;3.60;99.90
39067;DHT22;24821;51.988;6.020;2023-12-04T13:18:07;3.60;99.90
39067;DHT22;24821;51.988;6.020;2023-12-04T13:20:32;3.60;99.90
39067;DHT22;24821;51.988;6.020;2023-12-04T13:22:59;3.60;99.90
39067;DHT22;24821;51.988;6.020;2023-12-04T13:25:24;3.60;99.90
39067;DHT22;24821;51.988;6.020;2023-12-04T13:27:50;3.60;99.90
39067;DHT22;24821;51.988;6.020;2023-12-04T13:30:15;3.70;99.90
39067;DHT22;24821;51.988;6.020;2023-12-04T13:32:42;3.60;99.90
39067;DHT22;24821;51.988;6.020;2023-12-04T13:35:08;3.60;99.90
39067;DHT22;24821;51.988;6.020;2023-12-04T13:37:33;3.60;99.90
39067;DHT22;24821;51.988;6.020;2023-12-04T13:40:01;3.60;99.90
39067;DHT22;24821;51.988;6.020;2023-12-04T13:42:32;3.60;99.90
39067;DHT22;24821;51.988;6.020;2023-12-04T13:45:16;3.60;99.90
39067;DHT22;24821;51.988;6.020;2023-12-04T13:47:42;3.60;99.90
39067;DHT22;24821;51.988;6.020;2023-12-04T13:50:09;3.60;99.90
39067;DHT22;24821;51.988;6.020;2023-12-04T13:52:34;3.60;99.90
39067;DHT22;24821;51.988;6.020;2023-12-04T13:55:00;3.60;99.90
39067;DHT22;24821;51.988;6.020;2023-12-04T13:57:26;3.60;99.90
39067;DHT22;24821;51.988;6.020;2023-12-04T13:59:58;3.60;99.90
39067;DHT22;24821;51.988;6.020;2023-12-04T14:02:25;3.60;99.90
39067;DHT22;24821;51.988;6.020;2023-12-04T14:04:50;3.60;99.90
39067;DHT22;24821;51.988;6.020;2023-12-04T14:07:15;3.60;99.90
39067;DHT22;24821;51.988;6.020;2023-12-04T14:09:42;3.60;99.90
39067;DHT22;24821;51.988;6.020;2023-12-04T14:12:10;3.60;99.90
39067;DHT22;24821;51.988;6.020;2023-12-04T14:14:35;3.60;99.90
39067;DHT22;24821;51.988;6.020;2023-12-04T14:17:03;3.60;99.90
39067;DHT22;24821;51.988;6.020;2023-12-04T14:19:29;3.60;99.90
39067;DHT22;24821;51.988;6.020;2023-12-04T14:21:55;3.60;99.90
39067;DHT22;24821;51.988;6.020;2023-12-04T14:24:20;3.60;99.90
39067;DHT22;24821;51.988;6.020;2023-12-04T14:26:47;3.50;99.90
39067;DHT22;24821;51.988;6.020;2023-12-04T14:29:12;3.50;99.90
39067;DHT22;24821;51.988;6.020;2023-12-04T14:31:38;3.50;99.90
39067;DHT22;24821;51.988;6.020;2023-12-04T14:34:04;3.40;99.90
39067;DHT22;24821;51.988;6.020;2023-12-04T14:36:29;3.50;99.90
39067;DHT22;24821;51.988;6.020;2023-12-04T14:38:58;3.40;99.90
39067;DHT22;24821;51.988;6.020;2023-12-04T14:41:31;3.40;99.90
39067;DHT22;24821;51.988;6.020;2023-12-04T14:43:56;3.40;99.90
39067;DHT22;24821;51.988;6.020;2023-12-04T14:46:22;3.40;99.90
39067;DHT22;24821;51.988;6.020;2023-12-04T14:48:47;3.40;99.90
39067;DHT22;24821;51.988;6.020;2023-12-04T14:51:13;3.50;99.90
39067;DHT22;24821;51.988;6.020;2023-12-04T14:53:39;3.50;99.90
39067;DHT22;24821;51.988;6.020;2023-12-04T14:56:36;3.50;99.90
39067;DHT22;24821;51.988;6.020;2023-12-04T14:59:02;3.50;99.90
39067;DHT22;24821;51.988;6.020;2023-12-04T15:01:30;3.50;99.90
39067;DHT22;24821;51.988;6.020;2023-12-04T15:04:14;3.50;99.90
39067;DHT22;24821;51.988;6.020;2023-12-04T15:06:58;3.60;99.90
39067;DHT22;24821;51.988;6.020;2023-12-04T15:09:42;3.60;99.90
39067;DHT22;24821;51.988;6.020;2023-12-04T15:12:27;3.60;99.90
39067;DHT22;24821;51.988;6.020;2023-12-04T15:15:15;3.60;99.90
39067;DHT22;24821;51.988;6.020;2023-12-04T15:17:59;3.60;99.90
39067;DHT22;24821;51.988;6.020;2023-12-04T15:20:43;3.60;99.90
39067;DHT22;24821;51.988;6.020;2023-12-04T15:23:10;3.60;99.90
39067;DHT22;24821;51.988;6.020;2023-12-04T15:25:35;3.60;99.90
39067;DHT22;24821;51.988;6.020;2023-12-04T15:28:01;3.60;99.90
39067;DHT22;24821;51.988;6.020;2023-12-04T15:30:33;3.60;99.90
39067;DHT22;24821;51.988;6.020;2023-12-04T15:32:59;3.60;99.90
39067;DHT22;24821;51.988;6.020;2023-12-04T15:35:24;3.60;99.90
39067;DHT22;24821;51.988;6.020;2023-12-04T15:37:49;3.60;99.90
39067;DHT22;24821;51.988;6.020;2023-12-04T15:40:15;3.60;99.90
39067;DHT22;24821;51.988;6.020;2023-12-04T15:42:40;3.60;99.90
39067;DHT22;24821;51.988;6.020;2023-12-04T15:45:06;3.60;99.90
39067;DHT22;24821;51.988;6.020;2023-12-04T15:47:31;3.60;99.90
39067;DHT22;24821;51.988;6.020;2023-12-04T15:49:57;3.60;99.90
39067;DHT22;24821;51.988;6.020;2023-12-04T15:52:23;3.60;99.90
39067;DHT22;24821;51.988;6.020;2023-12-04T15:54:51;3.60;99.90
39067;DHT22;24821;51.988;6.020;2023-12-04T15:57:17;3.60;99.90
39067;DHT22;24821;51.988;6.020;2023-12-04T15:59:42;3.60;99.90
39067;DHT22;24821;51.988;6.020;2023-12-04T16:02:09;3.60;99.90
39067;DHT22;24821;51.988;6.020;2023-12-04T16:04:34;3.60;99.90